Saint Robert, Missouri
Current Conditions -  °F | °C
As of 4:58 PM on Sunday 21 Dec 2014 (Local Time) from KTBN Reporting Station
Overcast Overcast  
Wind Chill: 34°   Ceiling: 4300
Heat Index: 40°   Visibility: 10mi
Dew Point: 38°   Wind: 10mph
Humidity: 92%   Direction: 140°SE
Pressure: 29.93"   Gusts: NA
Location:  37.83°N, 92.18°W
Report Text: KTBN 212258Z AUTO 14009KT 10SM SCT033 OVC043 05/03 A2993 RMK AO2 CIG 036 RWY32 SLP144 T00450033 $
Loading
Personal Weather Stations






























Interactive Weather Map New forecast layout! Learn more

10-Day Weather Forecast

Advertisements
Track Severe Weather on mobile